< < Back
Terminal Aerodrome Forecast


Current Version              Previous Versions:   1  2  3  4  5  6  7  8  9  

Terminal Aerodrome Forecast

108
FTUS42 KFFC 032325
TAFCSG
TAF
KCSG 032325Z 0400/0424 20006KT P6SM BKN045
     FM040800 19005KT P6SM BKN025
     FM041000 19004KT 6SM BR BKN009
     FM041400 22006KT P6SM BKN015
     FM041700 22009KT P6SM BKN025
     FM042200 20006KT P6SM SCT040 BKN100=

Latest METAR

155
SAUS70 KWBC 040800 RRA
MTRCSG
METAR KCSG 040751Z 00000KT 10SM CLR 16/15 A3005 RMK AO2 SLP170
T01610150


USA.gov is the U.S. government's official web portal to all federal, state and local government web resources and services.